Time;durP1;ratioP1;P1;durP2;ratioP2;P2;SDS_P1;SDS_P2;PMS_P1;PMS_P2;Temp;Humidity;BMP_temperature;BMP_pressure;BME280_temperature;BME280_humidity;BME280_pressure;Samples;Min_cycle;Max_cycle;Signal;HPM_P1;HPM_P2
2022/07/07 00:02:09;;;;;;;14.93;13.45;;;;;;;21.94;63.45;99151.53;5019413;28;20020;-92
2022/07/07 00:04:35;;;;;;;17.70;14.32;;;;;;;21.89;63.85;99158.03;5019622;28;20024;-92
2022/07/07 00:07:01;;;;;;;17.17;13.75;;;;;;;21.77;63.98;99167.13;5003823;28;20483;-92
2022/07/07 00:09:27;;;;;;;17.58;14.60;;;;;;;21.88;64.13;99183.06;5019799;28;20028;-92
2022/07/07 00:11:53;;;;;;;16.95;13.77;;;;;;;21.86;64.21;99179.88;5003540;28;20033;-93
2022/07/07 00:14:18;;;;;;;16.08;14.20;;;;;;;21.88;63.86;99175.66;5007148;28;20095;-92
2022/07/07 00:16:44;;;;;;;15.27;13.68;;;;;;;21.73;64.83;99182.66;5023919;28;20099;-92
2022/07/07 00:19:10;;;;;;;16.55;14.38;;;;;;;21.62;65.48;99169.81;5007483;28;20040;-92
2022/07/07 00:21:35;;;;;;;16.95;14.60;;;;;;;21.48;65.29;99168.25;5007269;28;20032;-92
2022/07/07 00:24:01;;;;;;;18.70;14.93;;;;;;;21.44;65.10;99164.59;5007233;28;20039;-92
2022/07/07 00:26:26;;;;;;;15.90;14.40;;;;;;;21.37;65.61;99178.88;5007217;28;20083;-92
2022/07/07 00:28:52;;;;;;;15.45;13.93;;;;;;;21.31;65.83;99161.06;5023627;28;20025;-92
2022/07/07 00:31:17;;;;;;;16.77;14.18;;;;;;;21.49;65.45;99188.22;5023339;28;20106;-92
2022/07/07 00:33:43;;;;;;;16.80;14.32;;;;;;;21.61;65.19;99187.41;5007429;28;20020;-92
2022/07/07 00:36:09;;;;;;;16.25;14.65;;;;;;;21.56;65.13;99181.00;5006617;28;20095;-94
2022/07/07 00:38:35;;;;;;;15.65;14.15;;;;;;;21.48;65.26;99170.16;5023363;28;20017;-95
2022/07/07 00:41:00;;;;;;;15.95;14.23;;;;;;;21.41;65.19;99159.78;5006478;28;20021;-93
2022/07/07 00:43:26;;;;;;;15.82;14.30;;;;;;;21.46;65.72;99172.47;5006287;28;20142;-94
2022/07/07 00:45:51;;;;;;;16.33;14.50;;;;;;;21.45;65.15;99177.16;5006615;28;20025;-94
2022/07/07 00:48:18;;;;;;;15.23;13.60;;;;;;;21.42;65.63;99168.81;5005985;28;20028;-94
2022/07/07 00:50:43;;;;;;;15.60;13.95;;;;;;;21.39;65.30;99181.25;5022693;28;20025;-93
2022/07/07 00:53:09;;;;;;;15.52;13.98;;;;;;;21.34;65.80;99178.75;5006554;28;20029;-94
2022/07/07 00:55:34;;;;;;;16.35;14.65;;;;;;;21.19;66.31;99175.56;5006677;28;20025;-94
2022/07/07 00:58:00;;;;;;;15.95;14.43;;;;;;;21.10;66.66;99157.66;5006942;28;20035;-93
2022/07/07 01:00:25;;;;;;;19.88;14.65;;;;;;;21.23;65.83;99170.22;5005393;28;20471;-94
2022/07/07 01:02:51;;;;;;;16.02;14.50;;;;;;;21.21;66.47;99169.75;5006968;28;20471;-94
2022/07/07 01:05:17;;;;;;;16.08;14.10;;;;;;;21.18;66.17;99164.97;5006148;28;20083;-93
2022/07/07 01:07:47;;;;;;;16.63;14.10;;;;;;;21.20;66.54;99179.91;5006189;28;20512;-94
2022/07/07 01:10:13;;;;;;;16.63;14.55;;;;;;;21.05;66.47;99155.97;5021989;28;20057;-94
2022/07/07 01:12:39;;;;;;;15.60;14.10;;;;;;;21.04;66.83;99165.31;5005896;28;20031;-93
2022/07/07 01:15:06;;;;;;;15.65;13.50;;;;;;;21.01;66.57;99159.75;5006585;28;20028;-94
2022/07/07 01:17:32;;;;;;;15.88;13.63;;;;;;;21.13;66.67;99179.69;5022534;28;20021;-94
2022/07/07 01:19:58;;;;;;;15.57;14.07;;;;;;;21.11;66.53;99181.19;5005719;28;20051;-94
2022/07/07 01:22:27;;;;;;;15.07;13.45;;;;;;;21.01;66.64;99170.69;5022054;28;20494;-94
2022/07/07 01:24:53;;;;;;;16.70;14.05;;;;;;;20.89;66.52;99175.00;5004674;28;20021;-93
2022/07/07 01:27:20;;;;;;;15.40;13.80;;;;;;;20.98;66.71;99188.59;5006420;28;20100;-93
2022/07/07 01:29:53;;;;;;;16.63;14.75;;;;;;;20.82;66.87;99185.75;5005220;28;20025;-94
2022/07/07 01:32:19;;;;;;;18.33;14.73;;;;;;;20.77;66.95;99175.00;5006194;28;20068;-94
2022/07/07 01:34:45;;;;;;;19.13;15.00;;;;;;;20.79;67.35;99189.97;5006764;28;20084;-95
2022/07/07 01:37:11;;;;;;;16.13;14.40;;;;;;;20.70;66.97;99167.38;5007576;28;20493;-94
2022/07/07 01:39:37;;;;;;;16.20;14.50;;;;;;;20.71;67.63;99177.19;5006181;28;20024;-94
2022/07/07 01:42:03;;;;;;;16.13;14.52;;;;;;;20.63;67.43;99177.28;5006926;28;20032;-94
2022/07/07 01:44:38;;;;;;;17.95;15.45;;;;;;;20.54;67.75;99178.16;5005990;28;20071;-94
2022/07/07 01:47:04;;;;;;;16.90;15.07;;;;;;;20.52;67.53;99180.44;5006191;28;20035;-93
2022/07/07 01:49:30;;;;;;;18.63;16.63;;;;;;;20.46;67.48;99159.91;5005858;28;20394;-95
2022/07/07 01:51:56;;;;;;;21.17;15.80;;;;;;;20.53;66.77;99173.81;5005253;28;20083;-92
2022/07/07 01:54:25;;;;;;;19.83;16.85;;;;;;;20.47;67.11;99179.84;5005990;28;20021;-93
2022/07/07 01:56:50;;;;;;;18.27;15.80;;;;;;;20.45;66.91;99166.50;5022613;28;20029;-93
2022/07/07 01:59:16;;;;;;;19.00;17.10;;;;;;;20.44;67.00;99172.31;5005325;28;20402;-93
2022/07/07 02:01:41;;;;;;;18.88;15.98;;;;;;;20.43;67.21;99163.31;5004874;28;20032;-93
2022/07/07 02:04:07;;;;;;;18.48;15.82;;;;;;;20.43;67.62;99168.00;5004679;28;20026;-93
2022/07/07 02:06:32;;;;;;;19.63;17.55;;;;;;;20.51;67.50;99167.09;5004580;28;20029;-94
2022/07/07 02:08:59;;;;;;;21.17;17.80;;;;;;;20.55;67.04;99165.28;5004593;28;20029;-95
2022/07/07 02:11:28;;;;;;;19.63;16.95;;;;;;;20.43;67.25;99157.84;5020563;28;20025;-93
2022/07/07 02:13:54;;;;;;;19.20;16.02;;;;;;;20.50;66.82;99171.78;5004835;28;20376;-95
2022/07/07 02:16:21;;;;;;;19.05;16.50;;;;;;;20.39;66.90;99156.94;5004787;28;20021;-93
2022/07/07 02:18:51;;;;;;;19.58;15.80;;;;;;;20.45;67.42;99163.78;5004598;28;20058;-94
2022/07/07 02:21:17;;;;;;;16.77;14.25;;;;;;;20.42;66.65;99160.91;5005811;28;20028;-94
2022/07/07 02:23:44;;;;;;;17.95;15.13;;;;;;;20.41;66.60;99165.59;5004025;28;20021;-93
2022/07/07 02:26:10;;;;;;;18.50;15.15;;;;;;;20.26;66.71;99147.13;5005155;28;20115;-94
2022/07/07 02:28:35;;;;;;;18.77;14.98;;;;;;;20.39;66.32;99167.88;5004155;28;20025;-94
2022/07/07 02:31:01;;;;;;;15.60;14.00;;;;;;;20.38;66.40;99160.81;5004176;28;20020;-95
2022/07/07 02:33:26;;;;;;;15.57;13.10;;;;;;;20.47;65.95;99168.91;5003785;28;20049;-94
2022/07/07 02:35:52;;;;;;;13.85;12.45;;;;;;;20.41;66.48;99182.00;5003280;28;20422;-94
2022/07/07 02:38:18;;;;;;;14.93;12.02;;;;;;;20.35;66.70;99173.22;5004583;28;20031;-95
2022/07/07 02:40:43;;;;;;;14.52;12.95;;;;;;;20.39;66.16;99176.88;5004550;28;20028;-94
2022/07/07 02:43:15;;;;;;;14.93;12.88;;;;;;;20.45;66.35;99187.59;5004596;28;20079;-94
2022/07/07 02:45:43;;;;;;;14.90;12.13;;;;;;;20.44;65.87;99180.53;5005351;28;20032;-93
2022/07/07 02:48:09;;;;;;;16.35;12.23;;;;;;;20.52;65.96;99188.66;5004600;28;20411;-94
2022/07/07 02:50:36;;;;;;;12.15;10.95;;;;;;;20.53;65.80;99189.44;5021321;28;20032;-95
2022/07/07 02:53:01;;;;;;;11.52;10.32;;;;;;;20.62;65.05;99187.41;5004541;28;20029;-94
2022/07/07 02:55:27;;;;;;;11.82;10.73;;;;;;;20.63;65.13;99183.56;5004458;28;20223;-93
2022/07/07 02:57:52;;;;;;;11.55;10.38;;;;;;;20.62;64.68;99170.22;5004304;28;20032;-94
2022/07/07 03:00:18;;;;;;;14.13;10.00;;;;;;;20.69;64.38;99175.91;5004103;28;20033;-93
2022/07/07 03:02:43;;;;;;;12.30;10.75;;;;;;;20.76;64.76;99198.03;5003917;28;20479;-94
2022/07/07 03:05:11;;;;;;;17.35;10.88;;;;;;;20.71;65.01;99193.59;5003780;28;20029;-93
2022/07/07 03:07:37;;;;;;;13.65;10.80;;;;;;;20.69;65.20;99190.41;5021341;28;20028;-94
2022/07/07 03:10:03;;;;;;;11.30;10.18;;;;;;;20.75;65.43;99200.00;5004671;28;20028;-94
2022/07/07 03:12:28;;;;;;;12.20;10.80;;;;;;;20.63;65.84;99189.03;5004688;28;20435;-92
2022/07/07 03:14:54;;;;;;;12.25;11.00;;;;;;;20.67;65.80;99194.59;5004671;28;20028;-93
2022/07/07 03:17:19;;;;;;;11.77;10.57;;;;;;;20.65;65.73;99202.34;5022410;28;20028;-96
2022/07/07 03:19:45;;;;;;;16.42;10.75;;;;;;;20.51;65.95;99181.56;5021605;28;20037;-95
2022/07/07 03:22:11;;;;;;;12.75;10.50;;;;;;;20.62;66.12;99197.56;5004901;28;20403;-91
2022/07/07 03:24:36;;;;;;;19.25;12.32;;;;;;;20.56;66.39;99189.53;5004293;28;20025;-94
2022/07/07 03:27:02;;;;;;;15.57;12.23;;;;;;;20.55;66.71;99198.09;5020960;28;20517;-93
2022/07/07 03:29:27;;;;;;;13.23;11.65;;;;;;;20.57;66.07;99195.84;5006276;28;20032;-96
2022/07/07 03:31:53;;;;;;;14.88;11.35;;;;;;;20.65;65.62;99202.34;5008221;28;20032;-95
2022/07/07 03:34:19;;;;;;;12.07;10.52;;;;;;;20.47;65.98;99197.06;5005908;28;20029;-96
2022/07/07 03:36:44;;;;;;;12.05;10.02;;;;;;;20.29;66.87;99195.66;5021431;28;20423;-96
2022/07/07 03:39:10;;;;;;;15.85;10.50;;;;;;;20.06;67.78;99190.56;5026819;28;20029;-96
2022/07/07 03:41:35;;;;;;;21.15;11.02;;;;;;;20.16;68.27;99203.00;5023818;28;20016;-95
2022/07/07 03:44:01;;;;;;;11.65;10.25;;;;;;;20.14;67.46;99197.88;5025075;28;20541;-96
2022/07/07 03:46:27;;;;;;;15.80;10.27;;;;;;;20.06;67.63;99176.88;5005527;28;20029;-96
2022/07/07 03:48:52;;;;;;;13.20;11.48;;;;;;;20.20;67.65;99193.00;5025237;28;20509;-96
2022/07/07 03:51:18;;;;;;;19.58;10.95;;;;;;;20.15;67.00;99196.75;5025216;28;20120;-96
2022/07/07 03:53:43;;;;;;;15.45;9.85;;;;;;;20.29;66.81;99190.97;5010119;28;20032;-96
2022/07/07 03:56:09;;;;;;;10.95;9.80;;;;;;;20.37;66.08;99190.06;5008270;28;20112;-96
2022/07/07 03:58:34;;;;;;;19.00;11.90;;;;;;;20.46;66.11;99183.72;5008471;28;20467;-96
2022/07/07 04:01:00;;;;;;;15.05;10.27;;;;;;;20.62;65.50;99201.09;5007625;28;20028;-95
2022/07/07 04:03:26;;;;;;;13.73;9.48;;;;;;;20.58;65.32;99200.97;5025420;28;20021;-96
2022/07/07 04:05:59;;;;;;;14.00;10.82;;;;;;;20.71;65.71;99217.41;5025302;28;20076;-96
2022/07/07 04:08:27;;;;;;;12.85;10.27;;;;;;;20.62;65.83;99195.63;5027264;28;20088;-96
2022/07/07 04:10:52;;;;;;;11.43;10.15;;;;;;;20.84;65.04;99215.50;5024556;28;20162;-94
2022/07/07 04:13:18;;;;;;;11.55;10.40;;;;;;;20.98;64.85;99210.50;5006101;28;20037;-93
2022/07/07 04:15:49;;;;;;;12.32;10.55;;;;;;;21.10;64.40;99215.94;5024408;28;20505;-94
2022/07/07 04:18:15;;;;;;;13.00;10.53;;;;;;;20.99;64.20;99207.41;5026256;28;20052;-90
2022/07/07 04:20:43;;;;;;;13.32;11.35;;;;;;;20.93;64.90;99197.81;5039413;28;20267;-91
2022/07/07 04:23:09;;;;;;;24.60;10.23;;;;;;;20.92;63.47;99196.25;5007867;28;20025;-91
2022/07/07 04:25:37;;;;;;;14.75;9.85;;;;;;;21.01;64.21;99204.31;5007896;28;20040;-94
2022/07/07 04:28:03;;;;;;;17.58;10.50;;;;;;;21.07;64.41;99216.66;5009477;28;20056;-94
2022/07/07 04:30:38;;;;;;;19.30;15.85;;;;;;;21.09;63.56;99213.56;5003601;28;20060;-95
2022/07/07 04:33:11;;;;;;;16.73;9.57;;;;;;;21.17;63.32;99202.50;4979265;28;20041;-95
2022/07/07 04:35:40;;;;;;;18.52;9.32;;;;;;;21.27;63.08;99200.44;4986731;28;20088;-94
2022/07/07 04:38:06;;;;;;;17.00;6.78;;;;;;;21.43;61.69;99201.34;4987523;28;20046;-91
2022/07/07 04:40:31;;;;;;;11.82;7.20;;;;;;;21.65;61.19;99227.44;4985912;28;20048;-92
2022/07/07 04:42:57;;;;;;;16.40;8.10;;;;;;;21.68;61.08;99206.78;4986363;28;20083;-93
2022/07/07 04:45:22;;;;;;;18.00;9.15;;;;;;;21.85;61.13;99233.09;5002906;28;20025;-95
2022/07/07 04:47:50;;;;;;;15.27;9.35;;;;;;;21.60;61.73;99200.28;4988174;28;20083;-88
2022/07/07 04:50:17;;;;;;;34.05;25.65;;;;;;;21.79;61.01;99221.59;5028264;28;20021;-96
2022/07/07 04:52:43;;;;;;;22.45;15.02;;;;;;;21.85;61.34;99220.22;5018015;28;20026;-95
2022/07/07 04:55:24;;;;;;;15.38;8.48;;;;;;;21.91;60.66;99216.06;5014173;28;20431;-96
2022/07/07 04:57:50;;;;;;;13.73;9.63;;;;;;;21.92;60.69;99223.16;5003212;28;20476;-91
2022/07/07 05:00:44;;;;;;;12.38;9.75;;;;;;;21.97;60.95;99244.03;4982874;28;20036;-90
2022/07/07 05:03:34;;;;;;;17.05;9.82;;;;;;;21.90;60.59;99225.44;5012295;28;20053;-95
2022/07/07 05:17:34;;;;;;;9.90;8.50;;;;;;;22.32;59.14;99219.56;5049272;28;20045;-94
2022/07/07 05:20:18;;;;;;;16.88;8.68;;;;;;;22.57;58.66;99235.91;5018056;28;20061;-89
2022/07/07 05:22:43;;;;;;;12.95;8.15;;;;;;;22.76;57.86;99235.22;5001027;28;20531;-88
2022/07/07 05:25:09;;;;;;;9.45;5.13;;;;;;;22.83;55.08;99234.59;4987113;28;20029;-93
2022/07/07 05:27:34;;;;;;;5.47;3.60;;;;;;;22.99;53.14;99244.44;4986250;28;20186;-92
2022/07/07 05:30:00;;;;;;;10.65;3.30;;;;;;;23.04;53.56;99250.84;4987368;28;20036;-93
2022/07/07 05:32:29;;;;;;;4.88;3.40;;;;;;;23.17;52.81;99257.81;4987767;28;20025;-94
2022/07/07 05:34:57;;;;;;;9.93;4.30;;;;;;;23.28;53.76;99269.06;4990145;28;20116;-96
2022/07/07 05:37:29;;;;;;;6.32;4.65;;;;;;;23.22;55.14;99262.25;5007342;28;20074;-93
2022/07/07 05:39:57;;;;;;;4.45;4.05;;;;;;;23.25;54.17;99272.53;4989015;28;20036;-94
2022/07/07 05:42:23;;;;;;;4.05;3.63;;;;;;;23.24;54.27;99271.72;4985917;28;20036;-93
2022/07/07 05:44:57;;;;;;;10.15;4.25;;;;;;;23.29;54.51;99276.16;5015564;28;20017;-96
2022/07/07 05:47:25;;;;;;;7.85;4.05;;;;;;;23.21;54.83;99280.69;5030767;28;20017;-96
2022/07/07 05:49:51;;;;;;;11.15;5.03;;;;;;;23.37;53.85;99281.47;5011442;28;20033;-92
2022/07/07 05:52:26;;;;;;;10.30;4.10;;;;;;;23.42;53.36;99280.41;5007396;28;20030;-94
2022/07/07 05:55:33;;;;;;;7.57;4.10;;;;;;;23.61;52.81;99298.88;5008749;28;20032;-95
2022/07/07 05:58:01;;;;;;;7.55;5.38;;;;;;;23.63;52.92;99290.28;5040229;28;20015;-95
2022/07/07 06:00:27;;;;;;;4.45;3.38;;;;;;;23.71;51.74;99278.28;5025955;28;20028;-94
2022/07/07 06:02:56;;;;;;;5.55;3.67;;;;;;;23.65;52.17;99280.53;5029052;28;20029;-95
2022/07/07 06:05:37;;;;;;;7.63;3.53;;;;;;;23.60;51.75;99278.06;5009795;28;20029;-94
2022/07/07 06:08:22;;;;;;;4.72;3.35;;;;;;;23.69;51.22;99280.59;5010470;28;20016;-92
2022/07/07 06:10:48;;;;;;;5.88;4.38;;;;;;;23.59;52.53;99274.53;5021337;28;20040;-93
2022/07/07 06:13:43;;;;;;;5.38;4.68;;;;;;;23.74;52.57;99291.31;5009539;28;20029;-96
2022/07/07 06:16:11;;;;;;;11.40;4.20;;;;;;;23.69;52.42;99292.41;4966859;28;20058;-94
2022/07/07 06:18:40;;;;;;;6.15;3.78;;;;;;;23.83;53.01;99302.94;4949880;28;20077;-95
2022/07/07 06:21:06;;;;;;;6.80;3.90;;;;;;;23.65;52.72;99293.47;4967446;28;20050;-95
2022/07/07 06:23:37;;;;;;;5.18;3.42;;;;;;;23.79;52.03;99293.84;4953398;28;20567;-95
2022/07/07 06:26:03;;;;;;;8.90;3.90;;;;;;;23.77;52.38;99287.88;4936345;28;20091;-95
2022/07/07 06:28:31;;;;;;;4.30;3.72;;;;;;;24.03;52.20;99303.78;4931705;28;20532;-94
2022/07/07 06:30:58;;;;;;;7.20;4.28;;;;;;;23.71;52.27;99268.09;4934625;28;20493;-96
2022/07/07 06:33:27;;;;;;;15.07;8.43;;;;;;;23.95;51.44;99299.28;4947559;28;20026;-94
2022/07/07 07:36:54;;;;;;;9.95;3.70;;;;;;;24.65;48.46;99292.84;5039429;28;20037;-93
2022/07/07 07:39:20;;;;;;;4.93;3.03;;;;;;;24.82;48.41;99305.34;5000209;28;20041;-93
2022/07/07 07:41:49;;;;;;;10.15;4.53;;;;;;;25.12;47.86;99308.22;5019371;28;20033;-95
2022/07/07 07:49:05;;;;;;;;;;;;;;;;;;;;;
2022/07/07 07:52:00;;;;;;;6.28;3.10;;;;;;;24.97;46.39;99281.59;5047469;28;20117;-95
2022/07/07 08:00:08;;;;;;;7.95;3.50;;;;;;;25.17;47.12;99312.63;5092041;22;20054;-94
2022/07/07 08:02:44;;;;;;;4.32;3.63;;;;;;;24.86;47.94;99288.88;5013499;28;20024;-92
2022/07/07 08:05:13;;;;;;;5.55;3.42;;;;;;;24.89;48.24;99301.94;4965195;28;20018;-94
2022/07/07 08:07:42;;;;;;;5.72;3.20;;;;;;;24.77;48.68;99300.13;4964622;28;20041;-93
2022/07/07 08:10:09;;;;;;;7.30;3.35;;;;;;;24.79;47.60;99306.88;4964277;28;20492;-91
2022/07/07 08:12:34;;;;;;;7.70;3.90;;;;;;;24.79;48.31;99315.13;4978877;28;20180;-89
2022/07/07 08:15:00;;;;;;;4.88;3.33;;;;;;;24.73;47.90;99324.84;4989298;28;20496;-90
2022/07/07 08:17:26;;;;;;;8.45;3.22;;;;;;;24.45;48.25;99307.78;4986833;28;20017;-91
2022/07/07 08:19:51;;;;;;;7.57;3.70;;;;;;;24.39;48.18;99305.31;4995196;28;20124;-90
2022/07/07 08:22:17;;;;;;;3.75;3.28;;;;;;;24.24;48.57;99317.19;4964531;28;20150;-93
2022/07/07 08:24:43;;;;;;;6.65;3.20;;;;;;;24.11;48.79;99315.72;4973706;28;20028;-91
2022/07/07 08:27:11;;;;;;;12.77;3.30;;;;;;;23.90;49.41;99308.59;4993835;28;20472;-90
2022/07/07 08:29:38;;;;;;;6.72;3.60;;;;;;;24.03;49.70;99325.78;5017967;28;20045;-94
2022/07/07 08:32:12;;;;;;;5.32;3.65;;;;;;;23.88;50.67;99321.91;4969044;28;20099;-94
2022/07/07 08:34:38;;;;;;;7.30;4.45;;;;;;;23.86;51.07;99332.47;5017775;28;20018;-91
2022/07/07 08:37:04;;;;;;;8.93;5.93;;;;;;;23.92;51.82;99335.75;4968666;28;20120;-91
2022/07/07 08:39:30;;;;;;;8.82;4.88;;;;;;;23.94;51.73;99328.72;4966067;28;20022;-90
2022/07/07 08:41:58;;;;;;;10.43;5.88;;;;;;;23.96;52.22;99333.88;4965827;28;20018;-91
2022/07/07 08:44:24;;;;;;;6.65;5.40;;;;;;;24.06;53.29;99343.53;4983313;28;20475;-94
2022/07/07 08:46:50;;;;;;;9.07;5.15;;;;;;;23.94;53.93;99358.19;4966293;28;20032;-91
2022/07/07 08:49:18;;;;;;;11.45;5.57;;;;;;;23.44;56.31;99329.50;4966494;28;20030;-92
2022/07/07 08:51:46;;;;;;;13.85;10.45;;;;;;;23.51;56.83;99346.97;4967363;28;20026;-93
2022/07/07 08:54:14;;;;;;;8.18;5.95;;;;;;;23.31;57.46;99337.06;4970797;28;20022;-92
2022/07/07 08:56:40;;;;;;;8.32;6.15;;;;;;;23.26;57.89;99351.03;4983500;28;20037;-93
2022/07/07 08:59:18;;;;;;;16.55;7.15;;;;;;;23.32;58.00;99364.16;4980658;28;20124;-95
2022/07/07 09:01:59;;;;;;;8.43;5.82;;;;;;;23.37;57.52;99347.41;5004849;28;20059;-93
2022/07/07 09:04:27;;;;;;;8.98;6.32;;;;;;;23.42;57.71;99349.09;4988670;28;20044;-93
2022/07/07 09:06:53;;;;;;;9.55;6.88;;;;;;;23.41;58.37;99353.00;4987426;28;20037;-93
2022/07/07 09:09:59;;;;;;;7.47;5.78;;;;;;;23.31;58.55;99362.56;5005801;28;20025;-93
2022/07/07 09:12:25;;;;;;;7.88;5.63;;;;;;;23.39;58.49;99358.84;5018974;28;20110;-95
2022/07/07 09:14:56;;;;;;;6.05;5.55;;;;;;;23.29;58.55;99340.16;4991172;28;20022;-93
2022/07/07 09:17:32;;;;;;;8.83;5.50;;;;;;;23.40;57.63;99351.41;4986103;28;20032;-92
2022/07/07 09:20:10;;;;;;;7.47;6.38;;;;;;;23.71;57.40;99380.81;5024737;28;20621;-94
2022/07/07 09:22:56;;;;;;;8.07;6.53;;;;;;;23.70;56.89;99359.97;5023461;28;20105;-94
2022/07/07 09:25:23;;;;;;;7.07;5.22;;;;;;;23.87;56.70;99364.34;5023143;28;20530;-91
2022/07/07 09:28:02;;;;;;;8.13;4.35;;;;;;;24.12;55.36;99375.09;5022385;28;20435;-92
2022/07/07 09:30:33;;;;;;;6.63;4.32;;;;;;;24.29;54.61;99368.38;5023281;28;20029;-90
2022/07/07 09:33:05;;;;;;;7.55;4.90;;;;;;;24.21;54.09;99348.94;5007130;28;20073;-92
2022/07/07 09:42:18;;;;;;;8.20;5.25;;;;;;;25.19;52.45;99343.38;5068515;28;20036;-96
2022/07/07 09:45:10;;;;;;;4.40;4.00;;;;;;;25.41;51.33;99359.13;5029958;28;20430;-95
2022/07/07 09:55:36;;;;;;;4.35;3.58;;;;;;;25.72;48.53;99328.88;5025871;28;20053;-91
2022/07/07 09:58:07;;;;;;;5.78;3.42;;;;;;;25.71;48.55;99332.81;4997938;28;20028;-92
2022/07/07 10:00:32;;;;;;;5.93;3.45;;;;;;;25.36;47.67;99315.34;4966899;28;20509;-91
2022/07/07 10:03:07;;;;;;;5.38;3.53;;;;;;;25.79;47.72;99323.47;4982978;28;20038;-91
2022/07/07 10:05:35;;;;;;;4.40;2.92;;;;;;;25.90;46.18;99331.91;4983993;28;20049;-91
2022/07/07 10:08:07;;;;;;;6.07;3.72;;;;;;;25.87;46.57;99340.91;4982297;28;20037;-94
2022/07/07 10:10:33;;;;;;;4.70;2.80;;;;;;;25.76;44.93;99326.97;4965969;28;20109;-91
2022/07/07 10:13:00;;;;;;;3.53;3.15;;;;;;;25.58;45.11;99348.75;4966535;28;20044;-91
2022/07/07 10:15:30;;;;;;;14.35;12.23;;;;;;;25.68;47.24;99341.84;4981674;28;20036;-92
2022/07/07 10:17:56;;;;;;;21.95;8.10;;;;;;;25.60;46.20;99329.88;4966532;28;20080;-95
2022/07/07 10:20:39;;;;;;;8.32;4.40;;;;;;;25.88;47.29;99342.50;4969900;28;20030;-94
2022/07/07 10:23:05;;;;;;;6.93;3.47;;;;;;;25.79;46.82;99335.31;4975337;28;20084;-95
2022/07/07 10:25:36;;;;;;;6.47;3.38;;;;;;;25.87;46.57;99338.16;4968540;28;20038;-94
2022/07/07 10:28:02;;;;;;;5.68;3.85;;;;;;;26.07;46.60;99330.59;4986516;28;20030;-94
2022/07/07 10:30:34;;;;;;;5.88;3.55;;;;;;;26.18;46.27;99335.06;4985570;28;20038;-95
2022/07/07 10:33:03;;;;;;;9.95;3.30;;;;;;;26.26;45.14;99326.88;4964806;28;20034;-92
2022/07/07 10:35:30;;;;;;;3.47;2.83;;;;;;;26.33;45.77;99327.75;4965697;28;20034;-94
2022/07/07 10:37:59;;;;;;;4.88;3.38;;;;;;;26.44;44.57;99335.38;4982545;28;20022;-92
2022/07/07 10:40:29;;;;;;;6.40;3.00;;;;;;;26.42;45.12;99331.03;4965892;28;20125;-91
2022/07/07 10:43:42;;;;;;;6.97;3.40;;;;;;;26.22;46.32;99332.34;4967865;28;20056;-93
2022/07/07 10:46:08;;;;;;;5.05;3.50;;;;;;;26.34;46.75;99315.56;5005684;28;20056;-95
2022/07/07 10:48:49;;;;;;;9.13;3.28;;;;;;;26.44;46.16;99324.31;4965477;28;20022;-94
2022/07/07 10:51:24;;;;;;;3.65;3.35;;;;;;;26.87;45.80;99324.81;4980581;28;20541;-96
2022/07/07 10:54:13;;;;;;;4.75;3.60;;;;;;;26.68;45.29;99314.78;4981495;28;20062;-94
2022/07/07 10:57:02;;;;;;;8.55;3.42;;;;;;;26.65;46.73;99310.81;4975922;28;20076;-93
2022/07/07 10:59:30;;;;;;;4.97;3.22;;;;;;;26.73;45.34;99322.69;5005025;28;20403;-92
2022/07/07 11:02:05;;;;;;;5.05;3.47;;;;;;;26.47;46.81;99334.63;4984824;28;20116;-92
2022/07/07 11:04:51;;;;;;;4.68;3.78;;;;;;;26.39;46.96;99326.25;5016636;28;20394;-95
2022/07/07 11:07:18;;;;;;;4.97;3.60;;;;;;;26.33;46.67;99327.75;4987613;28;20406;-92
2022/07/07 11:10:11;;;;;;;6.75;3.90;;;;;;;26.38;47.44;99332.97;4985992;28;20112;-94
2022/07/07 11:12:48;;;;;;;4.15;3.72;;;;;;;26.27;47.64;99328.47;5002360;28;20035;-93
2022/07/07 11:15:23;;;;;;;4.70;3.78;;;;;;;26.36;47.58;99332.53;5004277;28;20032;-93
2022/07/07 11:17:52;;;;;;;4.13;3.72;;;;;;;26.37;47.97;99338.84;5016522;28;20025;-93
2022/07/07 11:20:19;;;;;;;5.07;4.35;;;;;;;26.12;47.02;99314.47;5017547;28;20025;-93
2022/07/07 11:26:13;;;;;;;10.52;4.43;;;;;;;26.41;47.90;99317.59;5031746;28;20035;-93
2022/07/07 11:28:41;;;;;;;4.93;4.28;;;;;;;26.41;47.67;99329.44;4985592;28;20032;-93
2022/07/07 11:31:09;;;;;;;12.55;10.70;;;;;;;26.43;47.60;99320.78;4984767;28;20033;-93
2022/07/07 11:33:41;;;;;;;6.22;4.50;;;;;;;26.41;48.05;99320.34;5017676;28;20032;-95
2022/07/07 11:36:38;;;;;;;4.43;4.03;;;;;;;26.64;46.71;99338.78;5000938;28;20350;-93
2022/07/07 11:39:40;;;;;;;;;;;;;;;;;;;;;
2022/07/07 11:42:42;;;;;;;5.35;4.10;;;;;;;26.33;48.14;99355.34;4979947;28;20038;-94
2022/07/07 11:45:29;;;;;;;5.50;4.15;;;;;;;25.93;49.40;99325.66;4977181;28;20034;-92
2022/07/07 11:48:01;;;;;;;6.53;4.30;;;;;;;25.68;49.69;99333.56;4960408;28;20030;-94
2022/07/07 11:51:23;;;;;;;;;;;;;;;;;;;;;
2022/07/07 11:54:00;;;;;;;11.38;10.18;;;;;;;25.73;49.78;99347.84;4978403;28;20134;-96
2022/07/07 11:56:32;;;;;;;5.88;4.07;;;;;;;25.78;49.47;99343.97;4932532;28;20034;-92
2022/07/07 11:59:08;;;;;;;4.43;4.05;;;;;;;25.69;49.77;99313.06;4960447;28;20134;-90
2022/07/07 12:01:40;;;;;;;12.05;5.28;;;;;;;25.80;50.52;99344.38;4946005;28;20038;-91
2022/07/07 12:04:20;;;;;;;6.20;3.97;;;;;;;25.42;51.18;99318.56;4959792;28;20034;-93
2022/07/07 12:06:46;;;;;;;6.13;3.95;;;;;;;25.36;51.00;99337.41;4943828;28;20042;-92
2022/07/07 12:09:32;;;;;;;5.22;4.13;;;;;;;25.05;52.39;99291.59;4942196;28;20178;-92
2022/07/07 12:11:57;;;;;;;6.35;3.95;;;;;;;25.29;51.29;99306.94;4947366;28;20116;-91
2022/07/07 12:14:33;;;;;;;8.02;4.60;;;;;;;25.50;50.90;99317.53;4928430;28;20130;-92
2022/07/07 12:16:58;;;;;;;5.68;3.85;;;;;;;25.71;50.40;99317.06;4980319;28;20048;-92
2022/07/07 12:19:24;;;;;;;5.55;4.18;;;;;;;25.05;50.72;99310.88;5003912;28;20029;-94
2022/07/07 12:22:08;;;;;;;6.07;3.83;;;;;;;25.47;50.72;99329.31;5003494;28;20053;-91
2022/07/07 12:24:34;;;;;;;8.68;4.13;;;;;;;25.66;49.42;99302.78;5024025;28;20037;-92
2022/07/07 12:27:18;;;;;;;6.55;3.78;;;;;;;25.78;48.89;99303.38;4961876;28;20030;-92
2022/07/07 12:30:08;;;;;;;5.50;4.15;;;;;;;25.97;48.55;99304.44;4963288;28;20030;-93
2022/07/07 12:32:36;;;;;;;6.30;3.45;;;;;;;25.87;49.04;99311.38;4959855;28;20027;-92
2022/07/07 12:35:28;;;;;;;6.75;3.67;;;;;;;25.74;49.26;99315.53;4930007;28;20022;-93
2022/07/07 12:37:53;;;;;;;7.45;3.70;;;;;;;25.91;49.38;99320.50;4960977;28;20134;-93
2022/07/07 12:40:28;;;;;;;6.18;3.35;;;;;;;25.92;49.12;99313.84;4928899;28;20117;-93
2022/07/07 12:42:54;;;;;;;4.63;3.70;;;;;;;26.09;47.92;99303.41;4940800;28;20528;-92
2022/07/07 12:45:21;;;;;;;4.20;3.80;;;;;;;26.09;48.04;99300.66;4947990;28;20062;-94
2022/07/07 12:47:54;;;;;;;5.97;3.72;;;;;;;26.21;47.79;99308.69;4946110;28;20038;-93
2022/07/07 12:50:20;;;;;;;7.18;3.97;;;;;;;26.18;47.97;99296.41;4962545;28;20127;-94
2022/07/07 12:53:04;;;;;;;8.02;3.72;;;;;;;26.40;47.55;99307.75;4975725;28;20041;-93
2022/07/07 12:55:39;;;;;;;3.53;3.22;;;;;;;26.60;46.63;99297.31;4967029;28;20069;-93
2022/07/07 12:58:16;;;;;;;4.65;3.92;;;;;;;26.77;46.20;99331.81;4997592;28;20446;-95
2022/07/07 13:00:58;;;;;;;6.72;3.50;;;;;;;26.64;46.46;99323.00;4999157;28;20041;-95
2022/07/07 13:03:24;;;;;;;4.57;3.20;;;;;;;26.53;47.05;99320.09;4985461;28;20026;-92
2022/07/07 13:05:49;;;;;;;3.80;3.30;;;;;;;26.76;46.34;99322.75;4985157;28;20482;-93
2022/07/07 13:08:15;;;;;;;4.82;3.50;;;;;;;26.81;45.93;99300.31;5003012;28;20083;-91
2022/07/07 13:10:41;;;;;;;4.68;4.18;;;;;;;26.79;46.76;99332.25;5032618;28;20101;-93
2022/07/07 13:13:15;;;;;;;6.40;4.22;;;;;;;26.71;46.30;99314.81;4987332;28;20025;-95
2022/07/07 13:15:41;;;;;;;6.07;3.70;;;;;;;26.58;46.75;99319.81;4989500;28;20021;-93
2022/07/07 13:18:07;;;;;;;3.60;3.25;;;;;;;26.92;45.78;99316.22;5005282;28;20072;-93
2022/07/07 13:20:35;;;;;;;5.63;5.05;;;;;;;26.77;46.43;99326.28;4985405;28;20034;-94
2022/07/07 13:23:00;;;;;;;5.93;4.38;;;;;;;26.59;46.75;99306.78;5004308;28;20155;-93
2022/07/07 13:25:29;;;;;;;5.68;3.40;;;;;;;26.73;46.54;99319.94;4983381;28;20022;-95